sensor_id;sensor_type;location;lat;lon;timestamp;pressure;altitude;pressure_sealevel;temperature;humidity
76126;BME280;65174;48.138;21.002;2023-04-24T00:01:22;98765.09;;;11.36;55.32
76126;BME280;65174;48.138;21.002;2023-04-24T00:04:24;98772.00;;;11.47;55.34
76126;BME280;65174;48.138;21.002;2023-04-24T00:07:28;98767.41;;;11.50;54.05
76126;BME280;65174;48.138;21.002;2023-04-24T00:10:30;98762.84;;;11.43;55.43
76126;BME280;65174;48.138;21.002;2023-04-24T00:13:33;98763.22;;;11.38;54.96
76126;BME280;65174;48.138;21.002;2023-04-24T00:16:34;98750.31;;;11.05;56.01
76126;BME280;65174;48.138;21.002;2023-04-24T00:19:37;98755.97;;;10.99;56.03
76126;BME280;65174;48.138;21.002;2023-04-24T00:22:39;98751.97;;;10.95;57.24
76126;BME280;65174;48.138;21.002;2023-04-24T00:25:41;98751.50;;;10.90;56.22
76126;BME280;65174;48.138;21.002;2023-04-24T00:28:43;98741.41;;;10.98;56.31
76126;BME280;65174;48.138;21.002;2023-04-24T00:31:45;98744.09;;;10.85;56.64
76126;BME280;65174;48.138;21.002;2023-04-24T00:34:48;98744.59;;;10.90;55.79
76126;BME280;65174;48.138;21.002;2023-04-24T00:37:50;98744.69;;;11.11;55.57
76126;BME280;65174;48.138;21.002;2023-04-24T00:40:52;98735.06;;;11.13;55.49
76126;BME280;65174;48.138;21.002;2023-04-24T00:43:55;98729.69;;;11.05;55.04
76126;BME280;65174;48.138;21.002;2023-04-24T00:46:58;98733.44;;;11.01;55.89
76126;BME280;65174;48.138;21.002;2023-04-24T00:50:05;98728.50;;;11.09;55.91
76126;BME280;65174;48.138;21.002;2023-04-24T00:53:08;98724.53;;;11.05;55.24
76126;BME280;65174;48.138;21.002;2023-04-24T00:56:11;98717.97;;;11.01;54.34
76126;BME280;65174;48.138;21.002;2023-04-24T00:59:15;98724.66;;;11.03;54.72
76126;BME280;65174;48.138;21.002;2023-04-24T01:02:18;98722.16;;;11.13;55.98
76126;BME280;65174;48.138;21.002;2023-04-24T01:05:20;98717.34;;;11.08;55.97
76126;BME280;65174;48.138;21.002;2023-04-24T01:08:24;98721.59;;;10.98;55.25
76126;BME280;65174;48.138;21.002;2023-04-24T01:11:28;98712.44;;;10.61;56.81
76126;BME280;65174;48.138;21.002;2023-04-24T01:14:31;98722.50;;;10.53;57.24
76126;BME280;65174;48.138;21.002;2023-04-24T01:17:33;98725.88;;;10.54;56.84
76126;BME280;65174;48.138;21.002;2023-04-24T01:20:36;98735.75;;;10.49;57.69
76126;BME280;65174;48.138;21.002;2023-04-24T01:23:43;98729.72;;;10.26;59.20
76126;BME280;65174;48.138;21.002;2023-04-24T01:26:46;98718.84;;;10.10;58.54
76126;BME280;65174;48.138;21.002;2023-04-24T01:29:48;98717.16;;;10.21;57.98
76126;BME280;65174;48.138;21.002;2023-04-24T01:32:53;98723.50;;;10.28;58.10
76126;BME280;65174;48.138;21.002;2023-04-24T01:35:55;98708.72;;;10.19;58.42
76126;BME280;65174;48.138;21.002;2023-04-24T01:38:58;98715.28;;;10.23;58.17
76126;BME280;65174;48.138;21.002;2023-04-24T01:42:00;98718.59;;;10.25;58.42
76126;BME280;65174;48.138;21.002;2023-04-24T01:45:04;98718.81;;;10.33;56.90
76126;BME280;65174;48.138;21.002;2023-04-24T01:48:07;98712.84;;;10.22;57.57
76126;BME280;65174;48.138;21.002;2023-04-24T01:51:09;98711.78;;;10.24;57.37
76126;BME280;65174;48.138;21.002;2023-04-24T01:54:12;98710.38;;;10.31;57.47
76126;BME280;65174;48.138;21.002;2023-04-24T01:57:14;98711.81;;;10.35;57.74
76126;BME280;65174;48.138;21.002;2023-04-24T02:00:17;98701.75;;;10.09;58.60
76126;BME280;65174;48.138;21.002;2023-04-24T02:03:19;98703.63;;;10.07;58.88
76126;BME280;65174;48.138;21.002;2023-04-24T02:06:23;98704.44;;;10.07;58.81
76126;BME280;65174;48.138;21.002;2023-04-24T02:09:27;98697.59;;;9.95;59.16
76126;BME280;65174;48.138;21.002;2023-04-24T02:12:29;98695.72;;;9.97;59.71
76126;BME280;65174;48.138;21.002;2023-04-24T02:15:31;98699.63;;;10.03;59.66
76126;BME280;65174;48.138;21.002;2023-04-24T02:18:33;98694.09;;;9.96;59.44
76126;BME280;65174;48.138;21.002;2023-04-24T02:21:35;98680.84;;;9.90;60.13
76126;BME280;65174;48.138;21.002;2023-04-24T02:24:38;98681.84;;;9.76;60.03
76126;BME280;65174;48.138;21.002;2023-04-24T02:27:42;98674.28;;;9.62;61.00
76126;BME280;65174;48.138;21.002;2023-04-24T02:30:44;98678.53;;;9.63;61.23
76126;BME280;65174;48.138;21.002;2023-04-24T02:33:46;98670.69;;;9.65;61.16
76126;BME280;65174;48.138;21.002;2023-04-24T02:36:48;98679.97;;;9.78;60.36
76126;BME280;65174;48.138;21.002;2023-04-24T02:39:50;98676.59;;;9.89;59.96
76126;BME280;65174;48.138;21.002;2023-04-24T02:42:53;98677.91;;;9.83;60.18
76126;BME280;65174;48.138;21.002;2023-04-24T02:45:54;98671.06;;;9.71;61.19
76126;BME280;65174;48.138;21.002;2023-04-24T02:48:56;98668.69;;;9.68;61.08
76126;BME280;65174;48.138;21.002;2023-04-24T02:51:58;98668.09;;;9.65;61.04
76126;BME280;65174;48.138;21.002;2023-04-24T02:55:00;98670.25;;;9.71;60.89
76126;BME280;65174;48.138;21.002;2023-04-24T02:58:02;98669.19;;;9.49;61.54
76126;BME280;65174;48.138;21.002;2023-04-24T03:01:04;98669.75;;;9.42;62.21
76126;BME280;65174;48.138;21.002;2023-04-24T03:04:07;98672.78;;;9.36;62.82
76126;BME280;65174;48.138;21.002;2023-04-24T03:07:09;98660.41;;;9.17;63.04
76126;BME280;65174;48.138;21.002;2023-04-24T03:10:11;98670.38;;;9.09;63.71
76126;BME280;65174;48.138;21.002;2023-04-24T03:13:16;98668.63;;;9.10;63.99
76126;BME280;65174;48.138;21.002;2023-04-24T03:16:18;98672.59;;;9.03;64.76
76126;BME280;65174;48.138;21.002;2023-04-24T03:19:21;98670.50;;;9.08;64.82
76126;BME280;65174;48.138;21.002;2023-04-24T03:22:35;98678.00;;;9.11;64.82
76126;BME280;65174;48.138;21.002;2023-04-24T03:25:40;98667.16;;;9.18;64.41
76126;BME280;65174;48.138;21.002;2023-04-24T03:28:45;98664.09;;;9.13;64.69
76126;BME280;65174;48.138;21.002;2023-04-24T03:31:47;98679.25;;;9.05;65.50
76126;BME280;65174;48.138;21.002;2023-04-24T03:34:49;98685.00;;;9.09;65.58
76126;BME280;65174;48.138;21.002;2023-04-24T03:37:51;98681.31;;;9.13;65.42
76126;BME280;65174;48.138;21.002;2023-04-24T03:41:19;98687.66;;;9.43;64.62
76126;BME280;65174;48.138;21.002;2023-04-24T03:44:29;98683.63;;;9.52;64.72
76126;BME280;65174;48.138;21.002;2023-04-24T03:47:30;98686.84;;;9.43;65.01
76126;BME280;65174;48.138;21.002;2023-04-24T03:50:35;98683.13;;;9.47;65.35
76126;BME280;65174;48.138;21.002;2023-04-24T03:53:38;98684.25;;;9.43;65.40
76126;BME280;65174;48.138;21.002;2023-04-24T03:56:41;98680.53;;;9.47;65.04
76126;BME280;65174;48.138;21.002;2023-04-24T03:59:43;98686.63;;;9.46;65.09
76126;BME280;65174;48.138;21.002;2023-04-24T04:02:51;98685.53;;;9.37;65.77
76126;BME280;65174;48.138;21.002;2023-04-24T04:05:53;98682.63;;;9.42;66.04
76126;BME280;65174;48.138;21.002;2023-04-24T04:08:56;98683.41;;;9.55;65.47
76126;BME280;65174;48.138;21.002;2023-04-24T04:11:58;98689.91;;;9.72;64.95
76126;BME280;65174;48.138;21.002;2023-04-24T04:15:00;98686.22;;;9.87;64.64
76126;BME280;65174;48.138;21.002;2023-04-24T04:18:04;98686.59;;;9.93;64.11
76126;BME280;65174;48.138;21.002;2023-04-24T04:21:07;98687.88;;;10.22;63.08
76126;BME280;65174;48.138;21.002;2023-04-24T04:24:09;98684.38;;;10.46;62.97
76126;BME280;65174;48.138;21.002;2023-04-24T04:27:16;98686.63;;;10.50;61.73
76126;BME280;65174;48.138;21.002;2023-04-24T04:30:30;98688.88;;;10.66;61.54
76126;BME280;65174;48.138;21.002;2023-04-24T04:33:37;98689.34;;;10.82;60.62
76126;BME280;65174;48.138;21.002;2023-04-24T04:36:42;98685.13;;;10.70;60.32
76126;BME280;65174;48.138;21.002;2023-04-24T04:40:11;98683.00;;;10.64;60.16
76126;BME280;65174;48.138;21.002;2023-04-24T04:43:23;98682.19;;;10.63;60.23
76126;BME280;65174;48.138;21.002;2023-04-24T04:46:27;98679.59;;;10.85;59.64
76126;BME280;65174;48.138;21.002;2023-04-24T04:49:41;98682.75;;;10.67;60.43
76126;BME280;65174;48.138;21.002;2023-04-24T04:52:52;98676.66;;;10.57;60.81
76126;BME280;65174;48.138;21.002;2023-04-24T04:56:01;98677.47;;;10.35;61.80
76126;BME280;65174;48.138;21.002;2023-04-24T04:59:13;98672.06;;;10.27;61.56
76126;BME280;65174;48.138;21.002;2023-04-24T05:02:15;98676.19;;;10.41;61.75
76126;BME280;65174;48.138;21.002;2023-04-24T05:05:18;98680.06;;;10.46;62.23
76126;BME280;65174;48.138;21.002;2023-04-24T05:08:20;98668.66;;;10.26;63.29
76126;BME280;65174;48.138;21.002;2023-04-24T05:11:28;98674.56;;;10.51;62.46
76126;BME280;65174;48.138;21.002;2023-04-24T05:14:32;98678.06;;;10.61;62.27
76126;BME280;65174;48.138;21.002;2023-04-24T05:17:36;98674.22;;;10.88;60.94
76126;BME280;65174;48.138;21.002;2023-04-24T05:20:38;98668.44;;;10.96;61.43
76126;BME280;65174;48.138;21.002;2023-04-24T05:23:41;98669.28;;;10.96;61.69
76126;BME280;65174;48.138;21.002;2023-04-24T05:26:45;98665.28;;;10.92;62.18
76126;BME280;65174;48.138;21.002;2023-04-24T05:29:49;98668.44;;;11.18;61.61
76126;BME280;65174;48.138;21.002;2023-04-24T05:32:52;98673.31;;;11.32;61.44
76126;BME280;65174;48.138;21.002;2023-04-24T05:35:54;98678.19;;;11.46;61.67
76126;BME280;65174;48.138;21.002;2023-04-24T05:38:56;98672.38;;;11.65;61.33
76126;BME280;65174;48.138;21.002;2023-04-24T05:41:58;98673.06;;;11.78;61.58
76126;BME280;65174;48.138;21.002;2023-04-24T05:46:33;98681.84;;;11.86;62.78
76126;BME280;65174;48.138;21.002;2023-04-24T05:50:35;98671.31;;;11.99;62.39
76126;BME280;65174;48.138;21.002;2023-04-24T06:10:57;98672.50;;;12.97;61.69
76126;BME280;65174;48.138;21.002;2023-04-24T07:12:09;98661.91;;;15.44;54.41
76126;BME280;65174;48.138;21.002;2023-04-24T07:15:36;98655.22;;;15.41;55.01
76126;BME280;65174;48.138;21.002;2023-04-24T07:18:38;98651.47;;;16.14;52.45
76126;BME280;65174;48.138;21.002;2023-04-24T07:21:41;98651.28;;;15.55;53.36
76126;BME280;65174;48.138;21.002;2023-04-24T07:24:44;98652.88;;;16.09;51.74
76126;BME280;65174;48.138;21.002;2023-04-24T07:27:46;98649.81;;;16.13;52.31
76126;BME280;65174;48.138;21.002;2023-04-24T07:30:48;98647.66;;;16.26;52.02
76126;BME280;65174;48.138;21.002;2023-04-24T07:33:50;98656.78;;;16.30;50.05
76126;BME280;65174;48.138;21.002;2023-04-24T07:36:52;98645.34;;;16.49;48.97
76126;BME280;65174;48.138;21.002;2023-04-24T07:39:55;98645.94;;;16.43;49.93
76126;BME280;65174;48.138;21.002;2023-04-24T07:42:57;98639.72;;;16.36;49.54
76126;BME280;65174;48.138;21.002;2023-04-24T07:46:02;98646.06;;;16.33;50.29
76126;BME280;65174;48.138;21.002;2023-04-24T07:49:04;98635.66;;;16.33;49.03
76126;BME280;65174;48.138;21.002;2023-04-24T07:52:15;98629.59;;;16.25;49.22
76126;BME280;65174;48.138;21.002;2023-04-24T07:55:17;98642.41;;;16.44;48.84
76126;BME280;65174;48.138;21.002;2023-04-24T07:58:22;98644.25;;;16.51;49.98
76126;BME280;65174;48.138;21.002;2023-04-24T08:01:24;98646.56;;;16.54;49.61
76126;BME280;65174;48.138;21.002;2023-04-24T08:04:27;98648.94;;;16.48;49.97
76126;BME280;65174;48.138;21.002;2023-04-24T08:07:29;98642.47;;;16.52;50.19
76126;BME280;65174;48.138;21.002;2023-04-24T08:10:31;98654.81;;;16.50;49.34
76126;BME280;65174;48.138;21.002;2023-04-24T08:13:33;98640.03;;;16.50;49.75
76126;BME280;65174;48.138;21.002;2023-04-24T08:16:54;98647.94;;;16.49;49.32
76126;BME280;65174;48.138;21.002;2023-04-24T08:20:36;98636.25;;;16.79;49.28
76126;BME280;65174;48.138;21.002;2023-04-24T08:23:38;98636.50;;;16.67;48.71
76126;BME280;65174;48.138;21.002;2023-04-24T08:26:40;98635.66;;;16.59;48.18
76126;BME280;65174;48.138;21.002;2023-04-24T08:29:42;98632.81;;;16.78;48.00
76126;BME280;65174;48.138;21.002;2023-04-24T08:32:45;98627.47;;;16.80;48.05
76126;BME280;65174;48.138;21.002;2023-04-24T08:35:47;98633.31;;;16.48;48.67
76126;BME280;65174;48.138;21.002;2023-04-24T08:38:49;98624.44;;;16.58;48.04
76126;BME280;65174;48.138;21.002;2023-04-24T08:41:52;98627.41;;;16.72;48.74
76126;BME280;65174;48.138;21.002;2023-04-24T08:44:54;98624.06;;;16.53;48.27
76126;BME280;65174;48.138;21.002;2023-04-24T08:47:58;98630.63;;;16.65;47.94
76126;BME280;65174;48.138;21.002;2023-04-24T08:51:01;98635.00;;;16.57;48.42
76126;BME280;65174;48.138;21.002;2023-04-24T08:54:04;98644.09;;;16.95;48.01
76126;BME280;65174;48.138;21.002;2023-04-24T08:57:10;98639.50;;;16.81;48.37
76126;BME280;65174;48.138;21.002;2023-04-24T09:00:21;98627.91;;;16.67;49.61
76126;BME280;65174;48.138;21.002;2023-04-24T09:03:23;98630.84;;;16.46;49.37
76126;BME280;65174;48.138;21.002;2023-04-24T09:06:29;98630.84;;;16.72;48.71
76126;BME280;65174;48.138;21.002;2023-04-24T09:44:42;98632.06;;;17.60;51.12
76126;BME280;65174;48.138;21.002;2023-04-24T09:47:45;98633.81;;;17.43;51.37
76126;BME280;65174;48.138;21.002;2023-04-24T09:50:48;98625.06;;;17.76;49.83
76126;BME280;65174;48.138;21.002;2023-04-24T09:53:53;98639.75;;;18.09;49.89
76126;BME280;65174;48.138;21.002;2023-04-24T09:56:58;98624.41;;;17.74;50.10
76126;BME280;65174;48.138;21.002;2023-04-24T10:00:02;98629.97;;;17.63;50.26
76126;BME280;65174;48.138;21.002;2023-04-24T10:03:12;98619.72;;;17.78;49.69
76126;BME280;65174;48.138;21.002;2023-04-24T10:06:14;98627.19;;;17.81;50.90
76126;BME280;65174;48.138;21.002;2023-04-24T10:09:22;98633.41;;;17.80;51.70
76126;BME280;65174;48.138;21.002;2023-04-24T10:12:25;98626.81;;;17.43;51.68
76126;BME280;65174;48.138;21.002;2023-04-24T10:15:27;98624.56;;;17.48;52.21
76126;BME280;65174;48.138;21.002;2023-04-24T10:18:29;98626.81;;;17.43;52.06
76126;BME280;65174;48.138;21.002;2023-04-24T10:21:32;98630.06;;;17.45;52.59
76126;BME280;65174;48.138;21.002;2023-04-24T10:24:35;98633.13;;;17.25;53.53
76126;BME280;65174;48.138;21.002;2023-04-24T10:27:39;98629.63;;;16.92;55.42
76126;BME280;65174;48.138;21.002;2023-04-24T10:30:42;98626.94;;;16.76;57.33
76126;BME280;65174;48.138;21.002;2023-04-24T10:33:45;98634.94;;;16.83;59.04
76126;BME280;65174;48.138;21.002;2023-04-24T10:36:51;98636.84;;;16.64;58.98
76126;BME280;65174;48.138;21.002;2023-04-24T10:39:58;98643.00;;;16.12;60.20
76126;BME280;65174;48.138;21.002;2023-04-24T10:43:02;98635.00;;;15.88;60.52
76126;BME280;65174;48.138;21.002;2023-04-24T10:46:08;98637.88;;;16.03;60.00
76126;BME280;65174;48.138;21.002;2023-04-24T10:49:12;98639.09;;;15.90;62.36
76126;BME280;65174;48.138;21.002;2023-04-24T10:52:14;98636.38;;;15.74;63.12
76126;BME280;65174;48.138;21.002;2023-04-24T10:55:51;98637.56;;;15.45;65.24
76126;BME280;65174;48.138;21.002;2023-04-24T10:58:53;98644.50;;;15.27;67.49
76126;BME280;65174;48.138;21.002;2023-04-24T11:01:55;98640.44;;;15.14;66.73
76126;BME280;65174;48.138;21.002;2023-04-24T11:04:57;98637.91;;;15.05;66.93
76126;BME280;65174;48.138;21.002;2023-04-24T11:08:24;98639.19;;;15.01;68.49
76126;BME280;65174;48.138;21.002;2023-04-24T11:11:29;98640.44;;;14.97;69.97
76126;BME280;65174;48.138;21.002;2023-04-24T11:18:00;98637.06;;;14.60;73.36
76126;BME280;65174;48.138;21.002;2023-04-24T11:21:10;98630.31;;;14.94;74.12
76126;BME280;65174;48.138;21.002;2023-04-24T11:27:41;98625.22;;;15.02;73.52
76126;BME280;65174;48.138;21.002;2023-04-24T11:30:45;98625.84;;;14.86;70.94
76126;BME280;65174;48.138;21.002;2023-04-24T11:33:47;98633.50;;;15.33;72.07
76126;BME280;65174;48.138;21.002;2023-04-24T11:36:49;98623.75;;;15.44;70.13
76126;BME280;65174;48.138;21.002;2023-04-24T11:39:55;98618.22;;;15.82;70.75
76126;BME280;65174;48.138;21.002;2023-04-24T11:43:00;98617.56;;;15.80;70.85
76126;BME280;65174;48.138;21.002;2023-04-24T11:46:02;98617.38;;;16.00;69.95
76126;BME280;65174;48.138;21.002;2023-04-24T11:49:07;98613.53;;;15.86;69.62
76126;BME280;65174;48.138;21.002;2023-04-24T11:52:09;98615.28;;;15.60;71.92
76126;BME280;65174;48.138;21.002;2023-04-24T11:58:20;98607.06;;;15.90;71.14
76126;BME280;65174;48.138;21.002;2023-04-24T12:01:23;98614.28;;;15.61;72.02
76126;BME280;65174;48.138;21.002;2023-04-24T12:04:25;98604.94;;;15.85;72.46
76126;BME280;65174;48.138;21.002;2023-04-24T12:07:28;98607.47;;;15.60;73.04
76126;BME280;65174;48.138;21.002;2023-04-24T12:10:31;98604.63;;;15.18;73.01
76126;BME280;65174;48.138;21.002;2023-04-24T12:13:34;98609.44;;;15.13;74.94
76126;BME280;65174;48.138;21.002;2023-04-24T12:16:51;98604.25;;;15.31;74.59
76126;BME280;65174;48.138;21.002;2023-04-24T12:20:01;98596.22;;;15.24;74.39
76126;BME280;65174;48.138;21.002;2023-04-24T12:23:04;98599.81;;;14.78;75.67
76126;BME280;65174;48.138;21.002;2023-04-24T12:26:06;98596.22;;;14.79;77.33
76126;BME280;65174;48.138;21.002;2023-04-24T12:29:08;98596.13;;;14.71;77.47
76126;BME280;65174;48.138;21.002;2023-04-24T12:32:16;98586.03;;;14.68;78.46
76126;BME280;65174;48.138;21.002;2023-04-24T12:35:20;98589.84;;;14.47;77.51
76126;BME280;65174;48.138;21.002;2023-04-24T12:38:24;98582.31;;;14.53;77.94
76126;BME280;65174;48.138;21.002;2023-04-24T12:41:30;98589.75;;;14.66;78.85
76126;BME280;65174;48.138;21.002;2023-04-24T12:44:33;98592.28;;;14.48;79.73
76126;BME280;65174;48.138;21.002;2023-04-24T12:47:36;98585.84;;;14.52;78.96
76126;BME280;65174;48.138;21.002;2023-04-24T12:50:38;98585.75;;;14.44;79.19
76126;BME280;65174;48.138;21.002;2023-04-24T12:53:40;98567.59;;;14.44;78.77
76126;BME280;65174;48.138;21.002;2023-04-24T12:56:42;98573.59;;;14.45;79.22
76126;BME280;65174;48.138;21.002;2023-04-24T12:59:45;98557.97;;;14.08;79.59
76126;BME280;65174;48.138;21.002;2023-04-24T13:02:47;98553.41;;;13.83;80.57
76126;BME280;65174;48.138;21.002;2023-04-24T13:05:49;98555.28;;;14.00;81.18
76126;BME280;65174;48.138;21.002;2023-04-24T13:08:51;98565.38;;;13.93;81.75
76126;BME280;65174;48.138;21.002;2023-04-24T13:11:54;98563.09;;;13.90;81.76
76126;BME280;65174;48.138;21.002;2023-04-24T13:14:58;98564.72;;;14.01;82.33
76126;BME280;65174;48.138;21.002;2023-04-24T13:18:00;98560.25;;;13.74;82.96
76126;BME280;65174;48.138;21.002;2023-04-24T13:21:02;98560.50;;;13.81;84.46
76126;BME280;65174;48.138;21.002;2023-04-24T13:24:05;98553.25;;;13.94;83.89
76126;BME280;65174;48.138;21.002;2023-04-24T13:27:09;98539.09;;;13.88;83.73
76126;BME280;65174;48.138;21.002;2023-04-24T13:30:11;98540.63;;;13.62;85.59
76126;BME280;65174;48.138;21.002;2023-04-24T13:33:14;98536.00;;;13.56;86.27
76126;BME280;65174;48.138;21.002;2023-04-24T13:36:16;98530.44;;;13.13;86.73
76126;BME280;65174;48.138;21.002;2023-04-24T13:39:19;98520.19;;;12.92;86.79
76126;BME280;65174;48.138;21.002;2023-04-24T13:42:22;98512.00;;;12.97;86.88
76126;BME280;65174;48.138;21.002;2023-04-24T13:45:24;98508.03;;;12.83;87.66
76126;BME280;65174;48.138;21.002;2023-04-24T13:48:26;98513.34;;;12.91;87.90
76126;BME280;65174;48.138;21.002;2023-04-24T13:51:28;98506.56;;;12.90;89.19
76126;BME280;65174;48.138;21.002;2023-04-24T13:54:30;98494.81;;;12.86;88.87
76126;BME280;65174;48.138;21.002;2023-04-24T13:57:33;98505.06;;;12.97;89.83
76126;BME280;65174;48.138;21.002;2023-04-24T14:00:35;98502.63;;;13.05;89.93
76126;BME280;65174;48.138;21.002;2023-04-24T14:03:37;98495.66;;;12.96;89.90
76126;BME280;65174;48.138;21.002;2023-04-24T14:06:40;98492.41;;;13.23;88.95
76126;BME280;65174;48.138;21.002;2023-04-24T14:09:43;98496.63;;;13.24;88.11
76126;BME280;65174;48.138;21.002;2023-04-24T14:12:51;98485.72;;;13.30;88.84
76126;BME280;65174;48.138;21.002;2023-04-24T14:15:53;98491.44;;;13.24;88.91
76126;BME280;65174;48.138;21.002;2023-04-24T14:18:57;98492.25;;;13.24;89.10
76126;BME280;65174;48.138;21.002;2023-04-24T14:22:02;98484.91;;;13.20;89.52
76126;BME280;65174;48.138;21.002;2023-04-24T14:25:05;98486.41;;;13.32;89.50
76126;BME280;65174;48.138;21.002;2023-04-24T14:28:07;98478.63;;;13.41;88.73
76126;BME280;65174;48.138;21.002;2023-04-24T14:31:09;98476.13;;;13.59;88.10
76126;BME280;65174;48.138;21.002;2023-04-24T14:34:13;98472.56;;;13.70;87.18
76126;BME280;65174;48.138;21.002;2023-04-24T14:37:15;98468.22;;;13.61;87.86
76126;BME280;65174;48.138;21.002;2023-04-24T14:40:17;98470.88;;;13.78;87.06
76126;BME280;65174;48.138;21.002;2023-04-24T14:43:40;98472.13;;;13.74;87.25
76126;BME280;65174;48.138;21.002;2023-04-24T14:46:42;98471.94;;;13.85;87.20
76126;BME280;65174;48.138;21.002;2023-04-24T14:49:44;98475.53;;;13.84;87.92
76126;BME280;65174;48.138;21.002;2023-04-24T14:52:49;98469.00;;;13.71;86.59
76126;BME280;65174;48.138;21.002;2023-04-24T14:55:51;98468.44;;;13.77;87.36
76126;BME280;65174;48.138;21.002;2023-04-24T14:58:53;98462.88;;;13.72;87.11
76126;BME280;65174;48.138;21.002;2023-04-24T15:01:55;98453.75;;;13.68;87.14
76126;BME280;65174;48.138;21.002;2023-04-24T15:05:16;98458.38;;;13.64;88.25
76126;BME280;65174;48.138;21.002;2023-04-24T15:08:19;98451.53;;;13.73;87.92
76126;BME280;65174;48.138;21.002;2023-04-24T15:11:21;98452.00;;;13.59;87.92
76126;BME280;65174;48.138;21.002;2023-04-24T15:14:23;98451.28;;;13.66;88.59
76126;BME280;65174;48.138;21.002;2023-04-24T15:17:25;98442.81;;;13.64;88.37
76126;BME280;65174;48.138;21.002;2023-04-24T15:20:28;98447.47;;;13.61;87.46
76126;BME280;65174;48.138;21.002;2023-04-24T15:23:30;98434.78;;;13.57;88.02
76126;BME280;65174;48.138;21.002;2023-04-24T15:26:33;98441.31;;;13.62;88.76
76126;BME280;65174;48.138;21.002;2023-04-24T15:29:37;98430.53;;;13.66;88.98
76126;BME280;65174;48.138;21.002;2023-04-24T15:32:39;98421.16;;;13.65;88.71
76126;BME280;65174;48.138;21.002;2023-04-24T15:35:41;98423.84;;;13.73;88.76
76126;BME280;65174;48.138;21.002;2023-04-24T15:38:44;98421.03;;;13.57;89.08
76126;BME280;65174;48.138;21.002;2023-04-24T15:41:46;98421.47;;;13.52;88.83
76126;BME280;65174;48.138;21.002;2023-04-24T15:44:48;98411.47;;;13.57;89.69
76126;BME280;65174;48.138;21.002;2023-04-24T15:47:50;98410.13;;;13.53;89.22
76126;BME280;65174;48.138;21.002;2023-04-24T15:50:52;98406.19;;;13.49;89.27
76126;BME280;65174;48.138;21.002;2023-04-24T15:53:54;98410.53;;;13.49;88.72
76126;BME280;65174;48.138;21.002;2023-04-24T15:56:56;98411.25;;;13.41;89.82
76126;BME280;65174;48.138;21.002;2023-04-24T15:59:58;98411.66;;;13.46;90.01
76126;BME280;65174;48.138;21.002;2023-04-24T16:03:01;98407.16;;;13.39;90.67
76126;BME280;65174;48.138;21.002;2023-04-24T16:06:03;98401.41;;;13.45;90.82
76126;BME280;65174;48.138;21.002;2023-04-24T16:09:05;98399.81;;;13.34;90.84
76126;BME280;65174;48.138;21.002;2023-04-24T16:12:08;98394.78;;;13.33;91.37
76126;BME280;65174;48.138;21.002;2023-04-24T16:15:11;98395.97;;;13.38;91.50
76126;BME280;65174;48.138;21.002;2023-04-24T16:18:14;98388.22;;;13.38;91.88
76126;BME280;65174;48.138;21.002;2023-04-24T16:21:18;98388.38;;;13.37;91.45
76126;BME280;65174;48.138;21.002;2023-04-24T16:24:21;98384.53;;;13.41;91.36
76126;BME280;65174;48.138;21.002;2023-04-24T16:27:24;98375.00;;;13.41;91.28
76126;BME280;65174;48.138;21.002;2023-04-24T16:30:26;98375.97;;;13.31;91.63
76126;BME280;65174;48.138;21.002;2023-04-24T16:33:28;98375.41;;;13.37;91.71
76126;BME280;65174;48.138;21.002;2023-04-24T16:36:32;98373.38;;;13.31;91.74
76126;BME280;65174;48.138;21.002;2023-04-24T16:39:34;98372.88;;;13.27;91.63
76126;BME280;65174;48.138;21.002;2023-04-24T16:42:38;98364.69;;;13.32;91.73
76126;BME280;65174;48.138;21.002;2023-04-24T16:45:40;98370.94;;;13.29;91.56
76126;BME280;65174;48.138;21.002;2023-04-24T16:48:42;98369.28;;;13.28;91.62
76126;BME280;65174;48.138;21.002;2023-04-24T16:51:44;98369.97;;;13.30;91.67
76126;BME280;65174;48.138;21.002;2023-04-24T16:54:46;98373.25;;;13.32;91.60
76126;BME280;65174;48.138;21.002;2023-04-24T16:57:48;98369.84;;;13.32;91.44
76126;BME280;65174;48.138;21.002;2023-04-24T17:00:51;98372.28;;;13.33;91.87
76126;BME280;65174;48.138;21.002;2023-04-24T17:03:53;98367.94;;;13.34;91.89
76126;BME280;65174;48.138;21.002;2023-04-24T17:06:55;98369.03;;;13.31;92.10
76126;BME280;65174;48.138;21.002;2023-04-24T17:09:57;98373.13;;;13.24;92.07
76126;BME280;65174;48.138;21.002;2023-04-24T17:12:59;98375.03;;;13.22;92.96
76126;BME280;65174;48.138;21.002;2023-04-24T17:16:02;98376.97;;;13.20;93.51
76126;BME280;65174;48.138;21.002;2023-04-24T17:19:04;98378.72;;;13.20;93.17
76126;BME280;65174;48.138;21.002;2023-04-24T17:22:06;98379.84;;;13.17;93.55
76126;BME280;65174;48.138;21.002;2023-04-24T17:25:08;98382.97;;;13.21;92.91
76126;BME280;65174;48.138;21.002;2023-04-24T17:28:26;98377.53;;;13.14;92.89
76126;BME280;65174;48.138;21.002;2023-04-24T17:31:29;98378.63;;;13.12;93.18
76126;BME280;65174;48.138;21.002;2023-04-24T17:34:31;98380.81;;;13.07;93.11
76126;BME280;65174;48.138;21.002;2023-04-24T17:37:33;98377.25;;;13.08;93.15
76126;BME280;65174;48.138;21.002;2023-04-24T17:40:35;98382.44;;;13.08;93.12
76126;BME280;65174;48.138;21.002;2023-04-24T17:43:39;98376.72;;;13.04;93.71
76126;BME280;65174;48.138;21.002;2023-04-24T17:46:41;98376.69;;;12.95;94.20
76126;BME280;65174;48.138;21.002;2023-04-24T17:49:43;98388.81;;;13.13;93.51
76126;BME280;65174;48.138;21.002;2023-04-24T17:52:46;98385.03;;;12.98;94.04
76126;BME280;65174;48.138;21.002;2023-04-24T17:55:48;98386.38;;;13.02;94.08
76126;BME280;65174;48.138;21.002;2023-04-24T17:58:51;98393.09;;;13.05;94.00
76126;BME280;65174;48.138;21.002;2023-04-24T18:01:53;98394.16;;;13.02;93.89
76126;BME280;65174;48.138;21.002;2023-04-24T18:04:55;98396.31;;;12.97;94.39